createdAt,value
2019-05-18T00:01:18.776Z,70.51
2019-05-18T00:03:47.264Z,71.10
2019-05-18T00:06:15.648Z,71.77
2019-05-18T00:08:44.131Z,72.94
2019-05-18T00:11:14.029Z,73.80
2019-05-18T00:13:42.430Z,73.29
2019-05-18T00:16:11.919Z,73.97
2019-05-18T00:18:40.399Z,73.65
2019-05-18T00:21:08.813Z,73.53
2019-05-18T00:23:38.697Z,74.38
2019-05-18T00:26:07.100Z,73.71
2019-05-18T00:28:35.526Z,73.11
2019-05-18T00:31:04.324Z,72.18
2019-05-18T00:33:34.418Z,71.64
2019-05-18T00:36:02.797Z,71.95
2019-05-18T00:38:31.362Z,71.62
2019-05-18T00:40:59.765Z,71.86
2019-05-18T00:43:29.624Z,72.43
2019-05-18T00:45:58.017Z,72.16
2019-05-18T00:48:26.387Z,72.60
2019-05-18T00:50:54.898Z,72.29
2019-05-18T00:53:23.413Z,72.78
2019-05-18T00:55:51.865Z,72.74
2019-05-18T00:58:20.240Z,72.63
2019-05-18T01:00:48.639Z,72.58
2019-05-18T01:03:17.052Z,73.30
2019-05-18T01:05:45.492Z,73.83
2019-05-18T01:08:13.898Z,73.88
2019-05-18T01:10:43.799Z,73.80
2019-05-18T01:13:12.836Z,74.01
2019-05-18T01:15:41.243Z,74.35
2019-05-18T01:18:09.643Z,73.41
2019-05-18T01:20:38.503Z,73.67
2019-05-18T01:23:08.643Z,73.53
2019-05-18T01:25:37.006Z,73.44
2019-05-18T01:28:05.529Z,73.77
2019-05-18T01:30:33.887Z,73.97
2019-05-18T01:33:02.274Z,74.72
2019-05-18T01:35:30.885Z,74.35
2019-05-18T01:37:59.279Z,74.99
2019-05-18T01:40:27.654Z,75.32
2019-05-18T01:42:56.072Z,75.48
2019-05-18T01:45:24.799Z,75.15
2019-05-18T01:47:53.270Z,78.56
2019-05-18T01:50:22.126Z,78.00
2019-05-18T01:52:52.598Z,77.60
2019-05-18T01:55:21.018Z,76.94
2019-05-18T01:57:49.661Z,76.21
2019-05-18T02:00:19.167Z,77.30
2019-05-18T02:02:47.593Z,76.28
2019-05-18T02:05:16.874Z,77.65
2019-05-18T02:07:45.278Z,76.85
2019-05-18T02:10:13.875Z,75.86
2019-05-18T02:12:42.294Z,76.80
2019-05-18T02:15:11.832Z,77.55
2019-05-18T02:17:40.230Z,76.99
2019-05-18T02:20:09.839Z,77.00
2019-05-18T02:22:38.353Z,77.22
2019-05-18T02:25:07.463Z,77.04
2019-05-18T02:27:37.713Z,77.75
2019-05-18T02:30:08.222Z,78.04
2019-05-18T02:32:36.609Z,77.96
2019-05-18T02:35:06.721Z,77.98
2019-05-18T02:37:36.667Z,78.78
2019-05-18T02:40:06.750Z,78.13
2019-05-18T02:42:35.341Z,78.20
2019-05-18T02:45:07.129Z,77.66
2019-05-18T02:47:35.606Z,78.33
2019-05-18T02:50:08.991Z,78.65
2019-05-18T02:52:37.418Z,78.09
2019-05-18T02:55:07.140Z,77.74
2019-05-18T02:57:37.059Z,78.20
2019-05-18T03:00:14.283Z,79.04
2019-05-18T03:02:42.281Z,79.09
2019-05-18T03:05:12.222Z,78.64
2019-05-18T03:07:42.134Z,80.87
2019-05-18T03:10:11.573Z,79.06
2019-05-18T03:12:39.934Z,79.85
2019-05-18T03:15:08.491Z,80.61
2019-05-18T03:17:36.917Z,78.41
2019-05-18T03:20:06.939Z,78.12
2019-05-18T03:22:35.297Z,78.27
2019-05-18T03:25:10.182Z,78.80
2019-05-18T03:27:38.569Z,78.27
2019-05-18T03:30:11.849Z,78.43
2019-05-18T03:32:40.312Z,78.26
2019-05-18T03:35:08.879Z,77.74
2019-05-18T03:37:37.254Z,78.85
2019-05-18T03:40:08.560Z,77.42
2019-05-18T03:42:37.010Z,77.21
2019-05-18T03:45:07.242Z,77.26
2019-05-18T03:47:35.613Z,77.25
2019-05-18T03:50:07.398Z,76.41
2019-05-18T03:52:35.785Z,76.13
2019-05-18T03:55:05.073Z,75.75
2019-05-18T03:57:33.423Z,75.53
2019-05-18T04:00:01.806Z,75.37
2019-05-18T04:02:33.369Z,75.81
2019-05-18T04:05:01.739Z,76.51
2019-05-18T04:07:31.636Z,75.22
2019-05-18T04:10:00.292Z,75.09
2019-05-18T04:12:28.730Z,76.52
2019-05-18T04:14:57.322Z,78.28
2019-05-18T04:17:25.754Z,78.15
2019-05-18T04:19:54.280Z,77.46
2019-05-18T04:22:22.648Z,78.87
2019-05-18T04:24:51.033Z,78.22
2019-05-18T04:27:19.428Z,77.64
2019-05-18T04:29:47.796Z,77.55
2019-05-18T04:32:16.175Z,78.75
2019-05-18T04:34:44.566Z,78.00
2019-05-18T04:37:12.955Z,76.78
2019-05-18T04:39:41.307Z,74.63
2019-05-18T04:42:09.687Z,74.69
2019-05-18T04:44:38.170Z,75.39
2019-05-18T04:47:06.589Z,78.72
2019-05-18T04:49:34.936Z,79.36
2019-05-18T04:52:04.278Z,78.64
2019-05-18T04:54:33.101Z,78.35
2019-05-18T04:57:01.503Z,77.80
2019-05-18T04:59:29.873Z,78.60
2019-05-18T05:01:58.271Z,78.26
2019-05-18T05:04:26.905Z,77.22
2019-05-18T05:06:55.452Z,77.38
2019-05-18T05:09:23.844Z,77.34
2019-05-18T05:11:52.234Z,77.23
2019-05-18T05:14:20.769Z,77.19
2019-05-18T05:16:49.216Z,76.87
2019-05-18T05:19:17.629Z,76.52
2019-05-18T05:21:46.016Z,76.40
2019-05-18T05:24:14.418Z,76.04
2019-05-18T05:26:42.890Z,76.66
2019-05-18T05:29:11.338Z,76.59
2019-05-18T05:31:39.924Z,76.53
2019-05-18T05:34:08.288Z,76.26
2019-05-18T05:36:38.363Z,76.14
2019-05-18T05:39:06.962Z,75.50
2019-05-18T05:41:36.857Z,75.63
2019-05-18T05:44:05.368Z,75.56
2019-05-18T05:46:37.240Z,74.62
2019-05-18T05:49:05.921Z,74.72
2019-05-18T05:51:34.283Z,75.05
2019-05-18T05:54:04.161Z,73.91
2019-05-18T05:56:32.599Z,73.05
2019-05-18T05:59:01.044Z,73.23
2019-05-18T06:01:29.419Z,72.81
2019-05-18T06:03:59.347Z,72.37
2019-05-18T06:06:27.883Z,72.46
2019-05-18T06:08:56.279Z,73.32
2019-05-18T06:11:24.686Z,74.27
2019-05-18T06:13:53.073Z,73.33
2019-05-18T06:16:24.482Z,73.03
2019-05-18T06:18:53.238Z,74.22
2019-05-18T06:21:21.662Z,74.60
2019-05-18T06:23:50.038Z,74.00
2019-05-18T06:26:18.419Z,73.99
2019-05-18T06:28:46.805Z,74.56
2019-05-18T06:31:15.207Z,75.16
2019-05-18T06:33:43.574Z,75.21
2019-05-18T06:36:12.059Z,74.95
2019-05-18T06:38:40.481Z,75.57
2019-05-18T06:41:10.446Z,75.80
2019-05-18T06:43:40.443Z,76.19
2019-05-18T06:46:11.703Z,76.32
2019-05-18T06:48:41.576Z,75.96
2019-05-18T06:51:10.312Z,75.28
2019-05-18T06:53:38.692Z,75.51
2019-05-18T06:56:07.403Z,75.15
2019-05-18T06:58:36.296Z,74.61
2019-05-18T07:01:06.184Z,74.26
2019-05-18T07:03:34.587Z,74.50
2019-05-18T07:06:02.946Z,74.28
2019-05-18T07:08:31.346Z,73.66
2019-05-18T07:10:59.919Z,74.20
2019-05-18T07:13:29.097Z,73.59
2019-05-18T07:15:58.973Z,72.98
2019-05-18T07:18:27.338Z,71.42
2019-05-18T07:20:55.724Z,69.27
2019-05-18T07:23:25.312Z,69.54
2019-05-18T07:25:53.730Z,68.14
2019-05-18T07:28:23.638Z,68.14
2019-05-18T07:30:52.012Z,67.38
2019-05-18T07:33:20.454Z,65.17
2019-05-18T07:35:48.951Z,62.71
2019-05-18T07:38:18.826Z,62.63
2019-05-18T07:40:48.809Z,61.42
2019-05-18T07:43:17.282Z,61.93
2019-05-18T07:45:45.648Z,60.89
2019-05-18T07:48:14.025Z,60.56
2019-05-18T07:50:42.466Z,59.22
2019-05-18T07:53:10.818Z,59.51
2019-05-18T07:55:40.052Z,57.98
2019-05-18T07:58:08.788Z,58.50
2019-05-18T08:00:37.166Z,59.72
2019-05-18T08:03:05.536Z,59.76
2019-05-18T08:05:39.826Z,59.55
2019-05-18T08:08:08.202Z,58.99
2019-05-18T08:10:38.298Z,58.74
2019-05-18T08:13:07.446Z,58.81
2019-05-18T08:15:37.155Z,60.55
2019-05-18T08:18:05.803Z,57.95
2019-05-18T08:20:34.254Z,59.14
2019-05-18T08:23:02.642Z,57.26
2019-05-18T08:25:31.121Z,54.86
2019-05-18T08:27:59.514Z,53.06
2019-05-18T08:30:27.907Z,50.30
2019-05-18T08:32:56.321Z,52.50
2019-05-18T08:35:27.153Z,51.91
2019-05-18T08:37:54.965Z,52.10
2019-05-18T08:40:23.366Z,51.30
2019-05-18T08:42:51.761Z,51.01
2019-05-18T08:45:21.178Z,49.58
2019-05-18T08:47:49.609Z,47.74
2019-05-18T08:50:20.496Z,48.24
2019-05-18T08:52:48.444Z,47.31
2019-05-18T08:55:16.895Z,48.30
2019-05-18T08:57:45.321Z,45.24
2019-05-18T09:00:15.361Z,45.81
2019-05-18T09:02:43.857Z,47.60
2019-05-18T09:05:12.463Z,47.57
2019-05-18T09:07:40.985Z,46.27
2019-05-18T09:10:09.604Z,44.63
2019-05-18T09:12:38.078Z,46.83
2019-05-18T09:15:08.103Z,47.06
2019-05-18T09:17:36.496Z,46.72
2019-05-18T09:20:08.258Z,45.74
2019-05-18T09:22:36.706Z,46.24
2019-05-18T09:25:06.747Z,46.71
2019-05-18T09:27:36.229Z,47.73
2019-05-18T09:30:09.500Z,46.49
2019-05-18T09:32:38.502Z,46.82
2019-05-18T09:35:07.948Z,45.48
2019-05-18T09:37:36.427Z,45.30
2019-05-18T09:40:07.587Z,45.93
2019-05-18T09:42:36.233Z,45.05
2019-05-18T09:45:08.236Z,45.00
2019-05-18T09:47:39.550Z,43.54
2019-05-18T09:50:09.611Z,42.64
2019-05-18T09:52:46.273Z,41.61
2019-05-18T09:55:09.405Z,43.13
2019-05-18T09:57:37.807Z,43.47
2019-05-18T10:00:11.505Z,44.18
2019-05-18T10:02:40.903Z,43.07
2019-05-18T10:05:10.947Z,42.18
2019-05-18T10:07:39.375Z,42.55
2019-05-18T10:10:08.821Z,43.07
2019-05-18T10:12:37.408Z,41.69
2019-05-18T10:15:07.549Z,41.45
2019-05-18T10:17:35.936Z,41.52
2019-05-18T10:20:10.285Z,42.72
2019-05-18T10:22:53.395Z,42.74
2019-05-18T10:25:09.719Z,43.56
2019-05-18T10:27:40.448Z,41.60
2019-05-18T10:30:10.393Z,40.57
2019-05-18T10:32:38.771Z,41.71
2019-05-18T10:35:07.720Z,42.24
2019-05-18T10:37:36.088Z,45.04
2019-05-18T10:40:09.531Z,44.29
2019-05-18T10:42:37.905Z,42.41
2019-05-18T10:45:08.044Z,42.42
2019-05-18T10:47:38.301Z,43.30
2019-05-18T10:50:07.932Z,44.60
2019-05-18T10:52:36.330Z,42.41
2019-05-18T10:55:07.098Z,42.15
2019-05-18T10:57:35.568Z,41.64
2019-05-18T11:00:09.525Z,42.71
2019-05-18T11:02:37.907Z,42.73
2019-05-18T11:05:07.239Z,40.07
2019-05-18T11:07:37.146Z,40.17
2019-05-18T11:10:10.519Z,38.41
2019-05-18T11:12:38.899Z,42.51
2019-05-18T11:15:09.144Z,41.76
2019-05-18T11:17:40.369Z,40.19
2019-05-18T11:20:10.498Z,39.75
2019-05-18T11:22:38.972Z,38.55
2019-05-18T11:25:19.378Z,39.09
2019-05-18T11:27:47.758Z,39.89
2019-05-18T11:30:16.826Z,39.87
2019-05-18T11:32:45.379Z,40.01
2019-05-18T11:35:17.315Z,38.65
2019-05-18T11:37:45.742Z,40.90
2019-05-18T11:40:14.481Z,39.86
2019-05-18T11:42:44.632Z,40.21
2019-05-18T11:45:22.294Z,38.02
2019-05-18T11:47:53.216Z,37.92
2019-05-18T11:50:21.856Z,36.17
2019-05-18T11:52:50.205Z,34.98
2019-05-18T11:55:20.150Z,36.07
2019-05-18T11:57:48.548Z,35.76
2019-05-18T12:00:17.695Z,35.99
2019-05-18T12:02:46.130Z,37.43
2019-05-18T12:05:17.293Z,36.75
2019-05-18T12:07:47.146Z,37.43
2019-05-18T12:10:18.501Z,38.40
2019-05-18T12:12:46.941Z,36.19
2019-05-18T12:15:17.006Z,35.35
2019-05-18T12:17:45.513Z,36.02
2019-05-18T12:20:15.250Z,36.46
2019-05-18T12:22:43.623Z,36.39
2019-05-18T12:25:13.600Z,34.57
2019-05-18T12:27:42.092Z,33.35
2019-05-18T12:30:11.497Z,35.75
2019-05-18T12:32:41.379Z,35.03
2019-05-18T12:35:14.698Z,35.06
2019-05-18T12:37:44.961Z,34.11
2019-05-18T12:40:16.380Z,33.76
2019-05-18T12:42:46.268Z,34.75
2019-05-18T12:45:15.418Z,34.80
2019-05-18T12:47:43.841Z,35.42
2019-05-18T12:50:14.142Z,33.52
2019-05-18T12:52:42.742Z,35.48
2019-05-18T12:55:11.714Z,35.49
2019-05-18T12:57:40.274Z,35.59
2019-05-18T13:00:14.316Z,36.97
2019-05-18T13:02:44.294Z,37.26
2019-05-18T13:05:13.079Z,36.86
2019-05-18T13:07:41.475Z,36.19
2019-05-18T13:10:11.450Z,36.15
2019-05-18T13:12:39.852Z,36.91
2019-05-18T13:15:10.970Z,38.57
2019-05-18T13:17:39.432Z,39.50
2019-05-18T13:20:10.423Z,41.27
2019-05-18T13:22:39.036Z,41.14
2019-05-18T13:25:08.475Z,39.38
2019-05-18T13:27:39.958Z,39.37
2019-05-18T13:30:10.453Z,40.51
2019-05-18T13:32:39.419Z,40.39
2019-05-18T13:35:07.958Z,40.09
2019-05-18T13:37:36.352Z,40.31
2019-05-18T13:40:07.068Z,41.07
2019-05-18T13:42:35.487Z,41.00
2019-05-18T13:45:07.362Z,40.49
2019-05-18T13:47:35.732Z,39.14
2019-05-18T13:50:04.747Z,39.81
2019-05-18T13:52:34.991Z,36.74
2019-05-18T13:55:11.302Z,37.70
2019-05-18T13:57:39.692Z,37.97
2019-05-18T14:00:09.288Z,39.94
2019-05-18T14:02:37.681Z,40.24
2019-05-18T14:05:07.466Z,41.04
2019-05-18T14:07:35.920Z,41.37
2019-05-18T14:10:06.739Z,42.65
2019-05-18T14:12:35.113Z,43.28
2019-05-18T14:15:08.491Z,43.24
2019-05-18T14:17:38.525Z,41.96
2019-05-18T14:20:07.583Z,42.78
2019-05-18T14:22:35.951Z,41.58
2019-05-18T14:25:18.870Z,41.25
2019-05-18T14:27:37.537Z,39.98
2019-05-18T14:30:07.482Z,40.01
2019-05-18T14:32:35.903Z,40.49
2019-05-18T14:35:07.613Z,40.12
2019-05-18T14:37:35.989Z,39.27
2019-05-18T14:40:09.594Z,39.72
2019-05-18T14:42:38.407Z,39.97
2019-05-18T14:45:08.237Z,40.22
2019-05-18T14:47:37.185Z,39.17
2019-05-18T14:50:07.512Z,39.67
2019-05-18T14:52:36.337Z,38.96
2019-05-18T14:55:07.795Z,41.12
2019-05-18T14:57:36.347Z,39.34
2019-05-18T15:00:07.093Z,40.52
2019-05-18T15:02:35.451Z,37.70
2019-05-18T15:05:07.290Z,37.54
2019-05-18T15:07:35.718Z,33.71
2019-05-18T15:10:06.890Z,33.38
2019-05-18T15:12:35.541Z,33.76
2019-05-18T15:15:09.062Z,35.36
2019-05-18T15:17:37.607Z,35.86
2019-05-18T15:20:07.440Z,34.09
2019-05-18T15:22:35.893Z,36.01
2019-05-18T15:25:05.306Z,36.20
2019-05-18T15:27:33.715Z,37.34
2019-05-18T15:30:02.293Z,38.63
2019-05-18T15:32:33.760Z,40.03
2019-05-18T15:35:02.190Z,41.07
2019-05-18T15:37:31.265Z,41.26
2019-05-18T15:39:59.803Z,41.21
2019-05-18T15:42:28.670Z,40.91
2019-05-18T15:44:57.101Z,40.50
2019-05-18T15:47:26.783Z,41.59
2019-05-18T15:49:55.118Z,41.94
2019-05-18T15:52:23.728Z,42.46
2019-05-18T15:54:52.096Z,43.65
2019-05-18T15:57:20.522Z,44.26
2019-05-18T15:59:48.928Z,45.32
2019-05-18T16:02:17.309Z,45.32
2019-05-18T16:04:45.775Z,44.90
2019-05-18T16:07:14.168Z,46.53
2019-05-18T16:09:42.635Z,47.69
2019-05-18T16:12:11.046Z,48.60
2019-05-18T16:14:39.680Z,49.64
2019-05-18T16:17:08.160Z,49.35
2019-05-18T16:19:36.600Z,49.79
2019-05-18T16:22:06.854Z,50.60
2019-05-18T16:24:35.360Z,50.04
2019-05-18T16:27:04.644Z,50.42
2019-05-18T16:29:33.090Z,51.17
2019-05-18T16:32:01.499Z,51.35
2019-05-18T16:34:29.888Z,51.65
2019-05-18T16:37:00.710Z,51.98
2019-05-18T16:39:28.452Z,51.54
2019-05-18T16:41:56.850Z,51.19
2019-05-18T16:44:25.328Z,51.42
2019-05-18T16:46:55.027Z,51.19
2019-05-18T16:49:23.450Z,52.03
2019-05-18T16:51:51.938Z,51.85
2019-05-18T16:54:20.623Z,51.06
2019-05-18T16:56:49.026Z,50.81
2019-05-18T16:59:17.795Z,50.89
2019-05-18T17:01:46.160Z,51.48
2019-05-18T17:04:14.889Z,51.53
2019-05-18T17:06:43.418Z,51.33
2019-05-18T17:09:15.969Z,53.01
2019-05-18T17:11:47.876Z,53.04
2019-05-18T17:14:14.681Z,55.91
2019-05-18T17:16:43.152Z,57.20
2019-05-18T17:19:11.649Z,59.10
2019-05-18T17:21:40.217Z,60.75
2019-05-18T17:24:08.657Z,61.30
2019-05-18T17:26:51.507Z,62.47
2019-05-18T17:29:07.245Z,62.63
2019-05-18T17:31:35.620Z,64.27
2019-05-18T17:34:06.105Z,64.27
2019-05-18T17:36:34.501Z,63.30
2019-05-18T17:39:03.014Z,64.71
2019-05-18T17:41:33.039Z,63.04
2019-05-18T17:44:01.451Z,64.34
2019-05-18T17:46:29.825Z,65.84
2019-05-18T17:49:01.038Z,66.18
2019-05-18T17:51:31.033Z,65.87
2019-05-18T17:53:59.487Z,66.33
2019-05-18T17:56:30.384Z,66.08
2019-05-18T17:58:58.190Z,65.66
2019-05-18T18:01:26.561Z,69.26
2019-05-18T18:03:55.066Z,68.24
2019-05-18T18:06:25.099Z,67.85
2019-05-18T18:08:53.475Z,69.66
2019-05-18T18:11:22.053Z,70.51
2019-05-18T18:13:50.513Z,70.73
2019-05-18T18:16:18.909Z,71.21
2019-05-18T18:18:47.318Z,72.38
2019-05-18T18:21:16.721Z,69.27
2019-05-18T18:23:52.806Z,69.47
2019-05-18T18:26:15.337Z,71.32
2019-05-18T18:28:43.720Z,71.88
2019-05-18T18:31:12.248Z,74.26
2019-05-18T18:33:40.716Z,74.81
2019-05-18T18:36:09.437Z,72.96
2019-05-18T18:38:38.149Z,71.83
2019-05-18T18:41:06.813Z,74.32
2019-05-18T18:43:35.186Z,74.14
2019-05-18T18:46:06.453Z,74.58
2019-05-18T18:48:34.956Z,75.70
2019-05-18T18:51:06.356Z,75.66
2019-05-18T18:53:34.729Z,75.86
2019-05-18T18:56:03.108Z,74.67
2019-05-18T18:58:31.629Z,74.67
2019-05-18T19:01:00.494Z,75.36
2019-05-18T19:03:28.962Z,76.32
2019-05-18T19:05:57.386Z,75.21
2019-05-18T19:08:25.988Z,76.79
2019-05-18T19:10:54.378Z,76.98
2019-05-18T19:13:22.932Z,76.43
2019-05-18T19:15:51.403Z,78.10
2019-05-18T19:18:19.838Z,78.34
2019-05-18T19:20:48.283Z,77.98
2019-05-18T19:23:16.957Z,78.99
2019-05-18T19:25:45.324Z,79.85
2019-05-18T19:28:13.724Z,79.82
2019-05-18T19:30:42.112Z,79.23
2019-05-18T19:33:10.546Z,79.49
2019-05-18T19:35:40.659Z,79.78
2019-05-18T19:38:09.076Z,79.81
2019-05-18T19:40:37.586Z,80.48
2019-05-18T19:43:06.181Z,81.53
2019-05-18T19:45:34.584Z,81.24
2019-05-18T19:48:03.011Z,82.09
2019-05-18T19:50:31.541Z,82.16
2019-05-18T19:53:02.920Z,82.58
2019-05-18T19:55:31.273Z,82.62
2019-05-18T19:58:08.543Z,82.05
2019-05-18T20:00:31.501Z,82.52
2019-05-18T20:03:01.453Z,82.73
2019-05-18T20:05:29.834Z,83.10
2019-05-18T20:07:58.276Z,83.56
2019-05-18T20:10:27.247Z,84.02
2019-05-18T20:12:57.291Z,83.76
2019-05-18T20:15:25.623Z,82.78
2019-05-18T20:17:54.043Z,82.20
2019-05-18T20:20:22.560Z,82.53
2019-05-18T20:22:50.995Z,82.40
2019-05-18T20:25:19.367Z,82.73
2019-05-18T20:27:47.755Z,82.97
2019-05-18T20:30:16.318Z,82.58
2019-05-18T20:32:44.803Z,82.55
2019-05-18T20:35:14.048Z,82.37
2019-05-18T20:37:42.423Z,82.91
2019-05-18T20:40:11.056Z,82.78
2019-05-18T20:42:39.439Z,82.95
2019-05-18T20:45:10.893Z,82.02
2019-05-18T20:47:39.555Z,81.81
2019-05-18T20:50:08.950Z,81.80
2019-05-18T20:52:37.657Z,81.37
2019-05-18T20:55:06.242Z,81.73
2019-05-18T20:57:34.624Z,82.03
2019-05-18T21:00:03.080Z,81.02
2019-05-18T21:02:31.514Z,82.29
2019-05-18T21:04:59.957Z,81.24
2019-05-18T21:07:28.499Z,82.25
2019-05-18T21:09:56.956Z,82.04
2019-05-18T21:12:25.337Z,82.07
2019-05-18T21:14:54.252Z,82.39
2019-05-18T21:17:22.713Z,82.43
2019-05-18T21:19:52.601Z,81.41
2019-05-18T21:22:21.010Z,80.52
2019-05-18T21:24:49.461Z,80.97
2019-05-18T21:27:17.943Z,80.00
2019-05-18T21:29:47.900Z,80.41
2019-05-18T21:32:19.262Z,80.36
2019-05-18T21:34:47.683Z,80.55
2019-05-18T21:37:16.170Z,79.53
2019-05-18T21:39:44.556Z,80.09
2019-05-18T21:42:14.523Z,79.82
2019-05-18T21:44:42.984Z,80.18
2019-05-18T21:47:11.383Z,80.70
2019-05-18T21:49:39.803Z,79.34
2019-05-18T21:52:08.289Z,79.74
2019-05-18T21:54:38.201Z,81.63
2019-05-18T21:57:06.622Z,82.21
2019-05-18T21:59:36.688Z,82.31
2019-05-18T22:02:05.345Z,82.38
2019-05-18T22:04:36.873Z,81.27
2019-05-18T22:07:05.257Z,81.07
2019-05-18T22:09:33.737Z,82.49
2019-05-18T22:12:02.134Z,82.00
2019-05-18T22:14:30.521Z,81.56
2019-05-18T22:17:01.970Z,81.37
2019-05-18T22:19:32.199Z,81.87
2019-05-18T22:22:00.579Z,81.70
2019-05-18T22:24:28.960Z,81.59
2019-05-18T22:26:57.914Z,82.45
2019-05-18T22:29:26.460Z,82.47
2019-05-18T22:31:57.532Z,81.98
2019-05-18T22:34:25.937Z,82.36
2019-05-18T22:36:54.422Z,81.90
2019-05-18T22:39:26.659Z,81.88
2019-05-18T22:41:54.637Z,81.70
2019-05-18T22:44:23.075Z,81.37
2019-05-18T22:46:51.437Z,81.71
2019-05-18T22:49:19.820Z,82.02
2019-05-18T22:51:48.240Z,81.36
2019-05-18T22:54:16.913Z,81.47
2019-05-18T22:56:45.274Z,81.73
2019-05-18T22:59:13.761Z,81.72
2019-05-18T23:01:42.198Z,82.07
2019-05-18T23:04:10.851Z,81.56
2019-05-18T23:06:39.282Z,81.82
2019-05-18T23:09:07.860Z,81.81
2019-05-18T23:11:36.301Z,81.20
2019-05-18T23:14:04.783Z,80.85
2019-05-18T23:16:33.155Z,81.54
2019-05-18T23:19:01.556Z,81.40
2019-05-18T23:21:29.930Z,81.60
2019-05-18T23:23:59.284Z,81.66
2019-05-18T23:26:27.807Z,82.26
2019-05-18T23:28:56.289Z,82.64
2019-05-18T23:31:26.171Z,82.55
2019-05-18T23:33:54.561Z,82.47
2019-05-18T23:36:22.941Z,81.75
2019-05-18T23:38:51.339Z,82.18
2019-05-18T23:41:19.702Z,82.88
2019-05-18T23:43:48.372Z,82.29
2019-05-18T23:46:18.280Z,82.85
2019-05-18T23:48:48.186Z,83.04
2019-05-18T23:51:16.624Z,82.65
2019-05-18T23:53:44.996Z,82.82
2019-05-18T23:56:13.390Z,82.80
2019-05-18T23:58:41.793Z,83.10
